Time;durP1;ratioP1;P1;durP2;ratioP2;P2;SDS_P1;SDS_P2;PMS_P1;PMS_P2;Temp;Humidity;BMP_temperature;BMP_pressure;BME280_temperature;BME280_humidity;BME280_pressure;Samples;Min_cycle;Max_cycle;Signal;HPM_P1;HPM_P2
2021/05/18 00:01:52;;;;;;;19.17;9.23;;;;;;;13.73;64.12;99145.91;5033283;28;20088;-87
2021/05/18 00:04:24;;;;;;;16.88;9.82;;;;;;;13.68;64.40;99149.75;5032145;28;20084;-86
2021/05/18 00:06:51;;;;;;;15.20;8.35;;;;;;;13.67;64.14;99145.44;5031935;28;20049;-86
2021/05/18 00:12:07;;;;;;;23.40;9.68;;;;;;;13.64;64.43;99144.84;5022485;28;20060;-85
2021/05/18 00:14:35;;;;;;;15.80;8.57;;;;;;;13.63;64.21;99146.63;5032043;28;20423;-86
2021/05/18 00:17:03;;;;;;;18.33;9.05;;;;;;;13.62;64.40;99147.59;5031691;28;20144;-86
2021/05/18 00:19:32;;;;;;;17.63;8.30;;;;;;;13.61;64.53;99148.53;5032612;28;20124;-86
2021/05/18 00:21:59;;;;;;;17.90;8.73;;;;;;;13.61;64.48;99153.84;5033156;28;20144;-86
2021/05/18 00:24:25;;;;;;;17.52;8.38;;;;;;;13.61;64.42;99150.38;5032151;28;20136;-82
2021/05/18 00:27:02;;;;;;;18.17;8.90;;;;;;;13.58;64.86;99151.47;5031691;28;20132;-86
2021/05/18 00:29:30;;;;;;;18.45;8.80;;;;;;;13.60;64.57;99154.00;5032145;28;20470;-86
2021/05/18 00:31:58;;;;;;;17.38;7.97;;;;;;;13.59;64.35;99153.13;5032056;28;20095;-86
2021/05/18 00:34:35;;;;;;;19.83;8.90;;;;;;;13.56;64.79;99150.72;5031409;28;20053;-87
2021/05/18 00:37:02;;;;;;;18.33;8.63;;;;;;;13.57;64.50;99148.94;5031865;28;20053;-87
2021/05/18 00:39:29;;;;;;;17.13;8.10;;;;;;;13.57;64.50;99156.88;5031680;28;20107;-87
2021/05/18 00:41:55;;;;;;;17.17;8.52;;;;;;;13.54;64.55;99152.66;5031882;28;20136;-86
2021/05/18 00:44:22;;;;;;;17.55;8.75;;;;;;;13.53;64.47;99162.38;5032014;28;20057;-86
2021/05/18 00:46:50;;;;;;;19.25;8.48;;;;;;;13.51;64.62;99168.75;5031725;28;20049;-86
2021/05/18 00:49:16;;;;;;;16.88;8.48;;;;;;;13.49;64.59;99166.22;5032181;28;20057;-86
2021/05/18 00:55:24;;;;;;;16.63;7.63;;;;;;;13.44;64.42;99168.38;5036139;28;20095;-83
2021/05/18 01:01:20;;;;;;;20.90;7.45;;;;;;;13.37;64.73;99173.31;5035793;28;20064;-82
2021/05/18 01:03:49;;;;;;;15.13;7.55;;;;;;;13.37;64.74;99167.16;5034837;28;20049;-82
2021/05/18 01:06:25;;;;;;;14.02;7.25;;;;;;;13.35;64.84;99179.69;5034918;28;20140;-86
2021/05/18 01:09:07;;;;;;;14.38;7.68;;;;;;;13.32;65.18;99175.47;5035618;28;20486;-86
2021/05/18 01:11:35;;;;;;;14.15;6.30;;;;;;;13.32;64.61;99172.81;4994421;28;20460;-86
2021/05/18 01:14:18;;;;;;;17.63;6.80;;;;;;;13.27;65.07;99185.56;4978257;28;20546;-86
2021/05/18 01:16:48;;;;;;;17.63;6.68;;;;;;;13.29;64.86;99189.78;4977987;28;20133;-86
2021/05/18 01:19:19;;;;;;;16.30;6.40;;;;;;;13.28;64.93;99189.88;4977731;28;20140;-86
2021/05/18 01:21:46;;;;;;;13.40;6.63;;;;;;;13.26;64.98;99197.94;4978145;28;20533;-86
2021/05/18 01:24:24;;;;;;;18.98;7.07;;;;;;;13.22;65.14;99191.19;4977683;28;20054;-86
2021/05/18 01:26:51;;;;;;;14.10;6.75;;;;;;;13.24;64.84;99185.78;4994275;28;20058;-86
2021/05/18 01:29:21;;;;;;;13.32;6.57;;;;;;;13.22;64.90;99185.91;4993896;28;20063;-85
2021/05/18 01:31:49;;;;;;;11.07;5.65;;;;;;;13.21;64.82;99191.31;5034186;28;20084;-86
2021/05/18 01:34:16;;;;;;;18.08;7.10;;;;;;;13.20;64.63;99198.38;5032379;28;20059;-86
2021/05/18 01:36:49;;;;;;;11.40;6.28;;;;;;;13.16;65.19;99191.69;5034247;28;20124;-86
2021/05/18 01:44:38;;;;;;;13.90;6.30;;;;;;;13.12;64.95;99198.97;5034996;28;20053;-86
2021/05/18 01:47:09;;;;;;;10.55;5.10;;;;;;;13.10;64.97;99205.34;5033980;28;20475;-85
2021/05/18 01:49:36;;;;;;;12.52;6.30;;;;;;;13.09;64.83;99206.31;5034756;28;20148;-86
2021/05/18 01:52:04;;;;;;;9.80;5.95;;;;;;;13.09;64.90;99207.13;5035333;28;20136;-82
2021/05/18 01:54:35;;;;;;;12.38;5.57;;;;;;;13.10;64.99;99205.34;5033896;28;20057;-82
2021/05/18 01:57:18;;;;;;;13.07;6.32;;;;;;;13.09;65.03;99207.13;4994856;28;20368;-82
2021/05/18 01:59:48;;;;;;;12.43;6.57;;;;;;;13.10;65.08;99208.00;4994975;28;20058;-85
2021/05/18 02:02:15;;;;;;;11.88;6.38;;;;;;;13.11;65.06;99212.31;4994770;28;20050;-86
2021/05/18 02:04:49;;;;;;;14.57;6.38;;;;;;;13.08;65.42;99209.94;5027029;28;20053;-86
2021/05/18 02:07:21;;;;;;;11.20;6.05;;;;;;;13.10;65.08;99210.63;5033648;28;20136;-86
2021/05/18 02:09:49;;;;;;;18.27;6.27;;;;;;;13.12;64.92;99216.66;5032964;28;20064;-86
2021/05/18 02:12:17;;;;;;;13.75;6.93;;;;;;;13.10;64.76;99208.84;5033641;28;20111;-86
2021/05/18 02:14:47;;;;;;;11.98;6.80;;;;;;;13.09;64.74;99214.25;5033644;28;20191;-86
2021/05/18 02:25:25;;;;;;;11.18;6.63;;;;;;;13.01;64.71;99223.59;5034707;28;20053;-83
2021/05/18 02:27:54;;;;;;;13.60;7.15;;;;;;;12.98;64.92;99220.34;5033682;28;20437;-83
2021/05/18 02:30:23;;;;;;;10.65;5.78;;;;;;;12.96;64.87;99219.59;5033351;28;20061;-83
2021/05/18 02:33:06;;;;;;;13.05;7.20;;;;;;;12.91;65.26;99217.31;5033295;28;20100;-86
2021/05/18 02:35:33;;;;;;;14.43;7.18;;;;;;;12.93;64.93;99218.03;5033048;28;20053;-85
2021/05/18 02:38:00;;;;;;;10.68;6.22;;;;;;;12.92;64.85;99221.66;5032678;28;20156;-86
2021/05/18 02:40:31;;;;;;;11.65;6.30;;;;;;;12.89;65.08;99220.09;5033080;28;20100;-86
2021/05/18 02:42:57;;;;;;;13.02;6.80;;;;;;;12.89;64.95;99222.72;5033035;28;20060;-85
2021/05/18 02:51:17;;;;;;;13.43;6.38;;;;;;;12.85;64.63;99215.97;5034410;28;20546;-85
2021/05/18 02:53:44;;;;;;;13.02;6.90;;;;;;;12.82;64.88;99218.84;5032637;28;20063;-86
2021/05/18 03:01:32;;;;;;;12.57;6.30;;;;;;;12.75;65.07;99217.66;5033902;28;20093;-83
2021/05/18 03:03:59;;;;;;;11.43;6.25;;;;;;;12.74;64.79;99223.88;5032924;28;20049;-82
2021/05/18 03:06:48;;;;;;;14.27;6.43;;;;;;;12.67;65.31;99220.84;5032782;28;20053;-83
2021/05/18 03:09:16;;;;;;;13.32;6.63;;;;;;;12.69;64.65;99221.59;5033040;28;20128;-83
2021/05/18 03:12:02;;;;;;;13.88;7.32;;;;;;;12.61;65.04;99224.81;5032388;28;20050;-83
2021/05/18 03:14:28;;;;;;;14.90;6.32;;;;;;;12.61;64.66;99224.81;5032008;28;20132;-83
2021/05/18 03:16:55;;;;;;;14.55;6.88;;;;;;;12.58;64.77;99225.03;5032778;28;20415;-83
2021/05/18 03:19:39;;;;;;;12.93;6.38;;;;;;;12.51;65.38;99229.91;5033128;28;20176;-85
2021/05/18 03:22:06;;;;;;;13.07;6.82;;;;;;;12.53;64.87;99227.16;5032591;28;20509;-86
2021/05/18 03:24:42;;;;;;;15.10;6.97;;;;;;;12.48;65.37;99227.50;5032378;28;20132;-85
2021/05/18 03:27:10;;;;;;;15.02;6.82;;;;;;;12.48;65.04;99234.56;5032205;28;20053;-85
2021/05/18 03:29:38;;;;;;;12.40;6.82;;;;;;;12.45;65.08;99230.34;5032515;28;20096;-85
2021/05/18 03:34:50;;;;;;;16.50;7.95;;;;;;;12.43;65.20;99236.69;5033462;28;20052;-86
2021/05/18 03:37:35;;;;;;;14.50;7.65;;;;;;;12.40;65.47;99242.22;5032680;28;20475;-86
2021/05/18 03:40:07;;;;;;;13.10;6.65;;;;;;;12.41;65.36;99243.91;5032605;28;20096;-86
2021/05/18 03:42:44;;;;;;;11.85;6.07;;;;;;;12.40;65.42;99237.78;5032440;28;20089;-86
2021/05/18 04:04:42;;;;;;;14.98;6.97;;;;;;;12.37;65.30;99243.25;5033438;28;20080;-83
2021/05/18 04:11:09;;;;;;;16.70;6.53;;;;;;;12.33;65.07;99244.44;5011552;28;20068;-83
2021/05/18 04:19:40;;;;;;;10.93;5.97;;;;;;;12.25;65.40;99251.13;5011007;28;20133;-84
2021/05/18 04:53:20;;;;;;;15.50;7.03;;;;;;;12.34;66.15;99281.28;5036302;28;20140;-84
2021/05/18 05:04:20;;;;;;;16.92;8.05;;;;;;;12.46;66.20;99290.13;5036206;28;20059;-83
2021/05/18 05:07:01;;;;;;;14.68;8.35;;;;;;;12.50;66.16;99293.38;5035306;28;20046;-86
2021/05/18 05:09:33;;;;;;;14.10;8.35;;;;;;;12.53;66.22;99295.81;5034915;28;20484;-86
2021/05/18 05:14:43;;;;;;;15.70;7.97;;;;;;;12.61;65.82;99297.88;5035913;28;20128;-85
2021/05/18 05:17:11;;;;;;;23.20;8.43;;;;;;;12.64;65.94;99295.03;5035002;28;20068;-86
2021/05/18 05:19:42;;;;;;;13.23;8.02;;;;;;;12.65;65.73;99307.25;5034775;28;20054;-86
2021/05/18 05:22:09;;;;;;;14.82;8.80;;;;;;;12.64;65.77;99301.13;5035799;28;20077;-86
2021/05/18 05:24:37;;;;;;;16.83;8.63;;;;;;;12.64;65.79;99313.50;5034435;28;20051;-86
2021/05/18 05:27:05;;;;;;;14.15;8.30;;;;;;;12.64;65.96;99309.03;5034429;28;20136;-86
2021/05/18 05:29:50;;;;;;;14.43;9.05;;;;;;;12.62;66.48;99307.47;5034500;28;20049;-86
2021/05/18 05:32:17;;;;;;;20.80;10.13;;;;;;;12.68;66.15;99306.19;5034818;28;20057;-86
2021/05/18 05:34:58;;;;;;;15.77;9.68;;;;;;;12.66;66.42;99305.44;5034228;28;20418;-86
2021/05/18 05:37:25;;;;;;;20.73;10.32;;;;;;;12.70;65.92;99299.84;5035200;28;20050;-86
2021/05/18 05:39:53;;;;;;;19.48;9.93;;;;;;;12.70;66.02;99310.41;5033716;28;20059;-86
2021/05/18 05:42:30;;;;;;;19.38;10.45;;;;;;;12.67;66.48;99312.44;5034422;28;20217;-86
2021/05/18 05:44:56;;;;;;;16.35;8.93;;;;;;;12.70;66.12;99318.31;5034117;28;20057;-86
2021/05/18 05:47:24;;;;;;;19.20;9.48;;;;;;;12.72;66.08;99310.28;5035629;28;20128;-86
2021/05/18 05:50:08;;;;;;;18.80;9.68;;;;;;;12.70;66.22;99326.25;5034042;28;20053;-86
2021/05/18 05:52:35;;;;;;;15.18;8.75;;;;;;;12.79;66.06;99311.53;5034288;28;20410;-86
2021/05/18 05:55:02;;;;;;;18.33;9.77;;;;;;;12.82;66.35;99313.94;5033517;28;20080;-86
2021/05/18 05:57:30;;;;;;;16.27;8.65;;;;;;;12.89;66.27;99322.25;5033707;28;20132;-86
2021/05/18 05:59:56;;;;;;;20.00;8.82;;;;;;;12.96;66.01;99322.63;5033622;28;20175;-86
2021/05/18 06:02:23;;;;;;;16.60;8.95;;;;;;;13.02;66.04;99330.94;5034232;28;20063;-83
2021/05/18 06:04:50;;;;;;;16.20;8.48;;;;;;;13.07;65.93;99333.25;5033755;28;20138;-86
2021/05/18 06:07:17;;;;;;;14.02;7.47;;;;;;;13.12;65.57;99325.00;5034335;28;20049;-86
2021/05/18 06:09:47;;;;;;;15.32;9.25;;;;;;;13.16;65.32;99337.03;5033924;28;20819;-86
2021/05/18 06:12:32;;;;;;;16.55;9.30;;;;;;;13.15;65.16;99333.53;5034018;28;20124;-86
2021/05/18 06:43:01;;;;;;;18.45;8.90;;;;;;;13.53;65.25;99347.47;5034543;28;20512;-86
2021/05/18 06:48:24;;;;;;;13.68;8.25;;;;;;;13.63;64.40;99360.84;5034036;28;20042;-86
2021/05/18 06:50:51;;;;;;;16.27;8.32;;;;;;;13.65;64.76;99361.56;5032280;28;20494;-86
2021/05/18 06:53:20;;;;;;;14.63;7.82;;;;;;;13.67;64.36;99364.94;5032892;28;20057;-86
2021/05/18 06:55:48;;;;;;;12.10;7.18;;;;;;;13.72;64.79;99361.09;5032615;28;20055;-85
2021/05/18 07:01:13;;;;;;;12.65;7.68;;;;;;;13.85;64.25;99364.50;5032642;28;20469;-86
2021/05/18 07:03:47;;;;;;;16.33;7.97;;;;;;;13.90;64.11;99364.13;5032085;28;20097;-86
2021/05/18 07:08:56;;;;;;;15.00;8.05;;;;;;;13.96;63.83;99360.16;4992405;28;20138;-83
2021/05/18 07:11:24;;;;;;;15.88;8.45;;;;;;;13.99;63.89;99363.44;4975979;28;20081;-84
2021/05/18 07:13:52;;;;;;;16.83;8.43;;;;;;;14.04;63.69;99365.69;4976415;28;20105;-84
2021/05/18 07:16:47;;;;;;;21.27;10.57;;;;;;;14.04;63.16;99365.69;4976402;28;20062;-83
2021/05/18 07:19:13;;;;;;;16.45;8.73;;;;;;;14.14;63.69;99369.34;4976036;28;20875;-83
2021/05/18 07:21:40;;;;;;;18.25;8.60;;;;;;;14.20;63.73;99367.97;4976216;28;20415;-84
2021/05/18 07:24:11;;;;;;;16.73;9.20;;;;;;;14.27;63.26;99365.69;4976087;28;20054;-84
2021/05/18 07:26:42;;;;;;;15.95;9.45;;;;;;;14.31;62.45;99364.50;4992244;28;20525;-84
2021/05/18 07:29:08;;;;;;;14.98;8.02;;;;;;;14.36;62.06;99358.84;5032710;28;20132;-84
2021/05/18 07:31:35;;;;;;;15.32;8.27;;;;;;;14.38;62.11;99364.84;5032673;28;20089;-84
2021/05/18 07:34:19;;;;;;;17.42;8.52;;;;;;;14.33;61.48;99365.22;5032197;28;20054;-84
2021/05/18 07:36:46;;;;;;;16.63;7.72;;;;;;;14.40;62.25;99368.22;5032566;28;20057;-84
2021/05/18 07:39:13;;;;;;;18.02;8.82;;;;;;;14.40;62.28;99373.53;5032138;28;20092;-84
2021/05/18 07:41:50;;;;;;;16.20;8.95;;;;;;;14.39;61.48;99372.66;5032193;28;20064;-83
2021/05/18 07:44:17;;;;;;;15.13;9.30;;;;;;;14.45;62.43;99379.28;5032425;28;20053;-83
2021/05/18 07:46:45;;;;;;;18.65;9.60;;;;;;;14.48;62.39;99372.91;5032413;28;20064;-86
2021/05/18 08:05:45;;;;;;;20.70;9.97;;;;;;;15.09;62.83;99379.53;5037095;28;20044;-86
2021/05/18 08:08:14;;;;;;;14.77;8.80;;;;;;;15.22;61.58;99385.50;5036216;28;20482;-86
2021/05/18 08:10:51;;;;;;;12.90;9.07;;;;;;;15.36;61.74;99384.38;5036253;28;20545;-86
2021/05/18 08:13:50;;;;;;;17.42;8.88;;;;;;;15.54;62.13;99381.13;5037279;28;20061;-86
2021/05/18 09:49:41;;;;;;;11.38;8.02;;;;;;;15.96;58.51;99390.91;5035328;28;20047;-84
2021/05/18 10:16:42;;;;;;;9.63;6.43;;;;;;;15.14;60.19;99429.53;5034791;28;20053;-84
2021/05/18 10:24:32;;;;;;;4.90;3.70;;;;;;;14.81;59.68;99437.44;5034416;28;20061;-86
2021/05/18 10:35:34;;;;;;;5.32;3.45;;;;;;;14.17;61.49;99431.78;4995131;28;20530;-86
2021/05/18 10:38:06;;;;;;;6.55;4.03;;;;;;;14.13;61.22;99433.78;5026191;28;20054;-86
2021/05/18 10:40:40;;;;;;;4.40;2.95;;;;;;;14.06;61.47;99425.47;4993732;28;20132;-86
2021/05/18 10:43:24;;;;;;;3.55;2.60;;;;;;;14.03;61.86;99438.13;4993824;28;20133;-86
2021/05/18 10:46:03;;;;;;;2.70;2.20;;;;;;;14.03;62.12;99438.13;4993442;28;20054;-86
2021/05/18 10:48:35;;;;;;;6.50;3.08;;;;;;;14.05;62.03;99436.19;5016492;28;20052;-86
2021/05/18 10:51:31;;;;;;;7.43;3.60;;;;;;;14.05;62.50;99436.19;5033336;28;20492;-86
2021/05/18 10:54:08;;;;;;;6.60;3.92;;;;;;;14.05;62.45;99430.91;5032711;28;20057;-86
2021/05/18 10:57:00;;;;;;;6.13;4.05;;;;;;;14.03;62.62;99438.97;5032708;28;20132;-87
2021/05/18 10:59:44;;;;;;;4.13;3.58;;;;;;;14.06;62.99;99438.72;5032675;28;20136;-86
2021/05/18 11:02:50;;;;;;;3.67;3.33;;;;;;;14.09;63.08;99436.81;5032733;28;20063;-86
2021/05/18 11:05:16;;;;;;;5.15;2.90;;;;;;;14.17;62.96;99440.53;4976107;28;20137;-86
2021/05/18 11:07:45;;;;;;;3.55;2.78;;;;;;;14.21;62.38;99441.16;4992568;28;20065;-84
2021/05/18 11:10:26;;;;;;;3.42;2.90;;;;;;;14.23;62.60;99433.06;4976349;28;20050;-84
2021/05/18 11:13:09;;;;;;;3.53;2.97;;;;;;;14.28;62.66;99436.22;4989903;28;20132;-83
2021/05/18 11:15:36;;;;;;;3.72;3.15;;;;;;;14.39;63.06;99425.63;5032377;28;20088;-84
2021/05/18 11:18:05;;;;;;;4.90;3.53;;;;;;;14.48;63.23;99425.88;5032558;28;20064;-84
2021/05/18 11:23:31;;;;;;;5.30;4.47;;;;;;;14.71;63.79;99422.25;5033623;28;20053;-84
2021/05/18 11:26:09;;;;;;;7.75;5.22;;;;;;;14.89;63.83;99428.88;5032435;28;20136;-83
2021/05/18 11:28:48;;;;;;;6.72;5.18;;;;;;;15.06;63.66;99430.16;5032522;28;20042;-84
2021/05/18 11:31:19;;;;;;;6.43;5.45;;;;;;;15.27;63.54;99432.00;5032317;28;20144;-84
2021/05/18 11:33:49;;;;;;;6.15;5.32;;;;;;;15.46;63.63;99432.19;5032104;28;20124;-86
2021/05/18 11:36:18;;;;;;;6.68;5.57;;;;;;;15.66;63.35;99432.31;5033011;28;20101;-83
2021/05/18 11:39:07;;;;;;;6.18;5.03;;;;;;;15.86;63.27;99429.81;5032537;28;20553;-83
2021/05/18 11:41:40;;;;;;;5.10;4.60;;;;;;;16.13;63.05;99431.09;5032557;28;20056;-83
2021/05/18 11:44:10;;;;;;;6.00;5.40;;;;;;;16.41;64.18;99434.88;5032022;28;20057;-90
2021/05/18 11:46:58;;;;;;;6.63;4.97;;;;;;;16.75;64.22;99433.72;5032002;28;20517;-90
2021/05/18 11:49:25;;;;;;;6.28;4.95;;;;;;;17.18;64.45;99430.91;5032259;28;20042;-85
2021/05/18 11:51:55;;;;;;;6.03;5.20;;;;;;;17.51;62.66;99441.28;5032604;28;20509;-85
2021/05/18 11:54:37;;;;;;;5.30;4.30;;;;;;;17.77;60.83;99435.38;5031910;28;20060;-86
2021/05/18 11:57:05;;;;;;;5.05;4.50;;;;;;;17.99;60.57;99426.22;5032443;28;20081;-86
2021/05/18 11:59:42;;;;;;;6.05;4.55;;;;;;;18.17;61.48;99425.50;5031983;28;20065;-86
2021/05/18 12:02:09;;;;;;;5.15;4.13;;;;;;;18.45;61.81;99429.03;5032049;28;20060;-83
2021/05/18 12:04:40;;;;;;;5.72;4.47;;;;;;;18.82;63.40;99427.31;5032073;28;20115;-86
2021/05/18 12:07:13;;;;;;;5.50;3.65;;;;;;;19.31;60.30;99434.16;5032153;28;20057;-85
2021/05/18 12:09:43;;;;;;;4.55;3.75;;;;;;;19.86;60.36;99424.28;5032337;28;20045;-84
2021/05/18 12:12:12;;;;;;;3.50;3.17;;;;;;;20.36;59.17;99427.25;5032009;28;20050;-85
2021/05/18 12:15:17;;;;;;;3.30;2.90;;;;;;;20.83;57.24;99425.09;5031675;28;20132;-84
2021/05/18 12:17:43;;;;;;;5.15;3.13;;;;;;;21.32;55.49;99427.06;5031015;28;20088;-84
2021/05/18 12:20:16;;;;;;;3.05;2.58;;;;;;;21.61;54.10;99423.03;4992543;28;20101;-83
2021/05/18 12:22:45;;;;;;;3.72;3.42;;;;;;;21.95;55.64;99428.41;4992618;28;20061;-84
2021/05/18 12:25:28;;;;;;;3.95;3.50;;;;;;;22.28;54.01;99422.97;4994132;28;20050;-84
2021/05/18 12:27:56;;;;;;;3.35;3.00;;;;;;;22.71;55.02;99421.81;4992239;28;20129;-83
2021/05/18 12:30:36;;;;;;;3.10;2.90;;;;;;;23.13;52.15;99435.81;4992388;28;20137;-84
2021/05/18 12:33:04;;;;;;;4.28;3.72;;;;;;;23.48;52.58;99438.16;4992717;28;20407;-85
2021/05/18 12:35:30;;;;;;;3.47;3.17;;;;;;;23.65;50.72;99438.84;5008406;28;20502;-85
2021/05/18 12:37:58;;;;;;;3.63;3.10;;;;;;;23.65;48.74;99437.00;5031438;28;20086;-85
2021/05/18 12:40:25;;;;;;;4.70;3.47;;;;;;;23.56;48.35;99433.53;5031650;28;20045;-85
2021/05/18 12:42:54;;;;;;;3.88;3.47;;;;;;;23.45;49.01;99441.19;5033184;28;20148;-85
2021/05/18 12:45:24;;;;;;;3.92;3.42;;;;;;;23.35;48.74;99438.72;5031451;28;20049;-85
2021/05/18 12:48:00;;;;;;;3.78;3.40;;;;;;;23.27;48.58;99431.53;5031885;28;20060;-85
2021/05/18 12:50:49;;;;;;;6.10;3.40;;;;;;;23.16;47.78;99440.84;5035631;28;20052;-85
2021/05/18 12:53:30;;;;;;;4.68;3.47;;;;;;;23.13;48.74;99438.50;5034961;28;20064;-87
2021/05/18 12:55:59;;;;;;;4.80;3.53;;;;;;;23.23;48.43;99438.28;5035387;28;20060;-87
2021/05/18 12:58:42;;;;;;;3.92;3.58;;;;;;;23.32;49.74;99439.09;5035132;28;20045;-87
2021/05/18 13:01:13;;;;;;;;;;;;;;;23.52;52.00;99431.41;5036590;28;20050;-86
2021/05/18 13:04:08;;;;;;;3.33;3.03;;;;;;;23.74;47.68;99444.97;5034655;28;20366;-87
2021/05/18 13:06:45;;;;;;;3.65;3.28;;;;;;;23.86;47.56;99440.00;5036201;28;20061;-87
2021/05/18 13:09:25;;;;;;;3.58;3.28;;;;;;;23.94;48.76;99438.09;5035303;28;20055;-87
2021/05/18 13:12:14;;;;;;;3.92;3.63;;;;;;;24.22;47.07;99433.13;5034773;28;20578;-84
2021/05/18 13:15:12;;;;;;;4.07;3.67;;;;;;;24.62;46.89;99430.13;5034822;28;20050;-84
2021/05/18 13:18:05;;;;;;;3.55;3.25;;;;;;;24.85;44.80;99427.31;5034997;28;20045;-84
2021/05/18 13:20:49;;;;;;;4.18;3.78;;;;;;;24.84;43.32;99428.34;5034699;28;20150;-84
2021/05/18 13:23:28;;;;;;;4.15;3.75;;;;;;;24.62;43.48;99424.75;5034756;28;20084;-83
2021/05/18 13:28:40;;;;;;;4.60;3.40;;;;;;;23.85;43.78;99430.28;5036182;28;20498;-84
2021/05/18 13:31:08;;;;;;;5.75;4.18;;;;;;;23.41;43.84;99429.97;5034800;28;20418;-83
2021/05/18 13:33:35;;;;;;;5.97;3.60;;;;;;;22.98;44.51;99439.28;5034237;28;20057;-83
2021/05/18 13:36:03;;;;;;;5.30;2.10;;;;;;;22.55;43.54;99441.50;5034045;28;20144;-84
2021/05/18 13:38:34;;;;;;;1.92;1.30;;;;;;;22.05;43.38;99442.44;5034725;28;20053;-84
2021/05/18 13:41:01;;;;;;;1.10;1.00;;;;;;;21.55;44.14;99455.00;5034595;28;20049;-83
2021/05/18 13:43:29;;;;;;;1.63;1.30;;;;;;;21.01;44.00;99445.59;5034272;28;20056;-83
2021/05/18 13:45:55;;;;;;;0.98;0.80;;;;;;;20.49;44.61;99452.72;5034516;28;20057;-83
2021/05/18 13:48:22;;;;;;;0.75;0.50;;;;;;;19.98;45.36;99454.25;5034237;28;20148;-83
2021/05/18 13:50:49;;;;;;;0.93;0.60;;;;;;;19.51;45.37;99455.38;5033859;28;20049;-83
2021/05/18 13:53:33;;;;;;;0.68;0.68;;;;;;;18.94;46.51;99456.44;5034454;28;20095;-87
2021/05/18 13:56:00;;;;;;;0.65;0.65;;;;;;;18.57;47.01;99459.00;5033946;28;20060;-87
2021/05/18 13:58:31;;;;;;;0.52;0.52;;;;;;;18.15;48.01;99456.75;5033806;28;20144;-87
2021/05/18 14:00:57;;;;;;;1.45;0.60;;;;;;;17.84;48.77;99442.63;5034806;28;20057;-87
2021/05/18 14:03:24;;;;;;;1.08;0.85;;;;;;;17.54;49.31;99443.66;5033997;28;20053;-87
2021/05/18 14:05:52;;;;;;;4.72;0.80;;;;;;;17.29;50.56;99437.91;5033796;28;20077;-83
2021/05/18 14:08:39;;;;;;;2.08;0.75;;;;;;;17.08;50.71;99443.34;5033870;28;20045;-84
2021/05/18 14:11:17;;;;;;;2.22;0.70;;;;;;;16.90;51.77;99441.34;5033607;28;20081;-82
2021/05/18 14:13:46;;;;;;;0.65;0.60;;;;;;;16.77;52.38;99446.88;5033777;28;20493;-83
2021/05/18 14:16:16;;;;;;;11.25;1.40;;;;;;;16.70;53.25;99443.09;5033931;28;20140;-83
2021/05/18 14:18:57;;;;;;;2.28;1.00;;;;;;;16.61;53.91;99442.06;5033512;28;20084;-83
2021/05/18 14:21:26;;;;;;;1.88;0.88;;;;;;;16.61;53.61;99448.25;5033823;28;20136;-83
2021/05/18 14:24:12;;;;;;;1.15;0.65;;;;;;;16.62;54.12;99449.91;5033191;28;20108;-83
2021/05/18 14:26:41;;;;;;;1.05;0.80;;;;;;;16.66;54.80;99439.84;5033523;28;20061;-82
2021/05/18 14:29:08;;;;;;;0.60;0.57;;;;;;;16.78;56.16;99446.75;5034090;28;20124;-83
2021/05/18 14:31:35;;;;;;;0.50;0.50;;;;;;;17.02;57.58;99450.88;5033723;28;20061;-86
2021/05/18 14:34:04;;;;;;;1.20;0.60;;;;;;;17.42;57.89;99445.63;5033462;28;20056;-86
2021/05/18 14:36:31;;;;;;;2.08;0.90;;;;;;;17.98;58.86;99441.34;5033512;28;20054;-83
2021/05/18 14:39:07;;;;;;;1.05;0.65;;;;;;;18.66;59.64;99446.63;5033449;28;20057;-82
2021/05/18 14:44:25;;;;;;;1.58;0.50;;;;;;;20.28;57.99;99437.91;5034112;28;20482;-87
2021/05/18 14:47:08;;;;;;;1.00;0.90;;;;;;;21.12;55.76;99445.25;5033003;28;20049;-87
2021/05/18 14:55:16;;;;;;;0.80;0.80;;;;;;;23.63;51.20;99449.75;5033729;28;20052;-88
2021/05/18 14:57:44;;;;;;;0.93;0.68;;;;;;;24.28;49.16;99448.50;4992299;28;20085;-88
2021/05/18 15:00:12;;;;;;;1.45;1.05;;;;;;;24.87;48.57;99456.75;4976258;28;20121;-88
2021/05/18 15:02:39;;;;;;;1.00;0.82;;;;;;;25.32;46.54;99454.75;4976400;28;20925;-88
2021/05/18 15:05:12;;;;;;;1.10;1.00;;;;;;;25.58;43.67;99463.31;4976303;28;20539;-88
2021/05/18 15:07:41;;;;;;;;;;;;;;;25.65;47.21;99449.88;4976828;28;20085;-88
2021/05/18 15:10:08;;;;;;;1.88;1.67;;;;;;;25.54;42.23;99453.91;4992634;28;19922;-87
2021/05/18 15:12:41;;;;;;;2.53;1.90;;;;;;;25.10;40.98;99461.97;4991727;28;20046;-87
2021/05/18 15:15:08;;;;;;;1.80;1.70;;;;;;;24.68;40.95;99459.81;4984489;28;20084;-87
2021/05/18 15:17:35;;;;;;;2.22;2.03;;;;;;;24.16;41.02;99454.34;5032860;28;20099;-87
2021/05/18 15:20:03;;;;;;;2.25;2.05;;;;;;;23.66;41.39;99457.47;5032954;28;20112;-83
2021/05/18 15:22:31;;;;;;;3.83;2.35;;;;;;;23.22;42.16;99460.78;5032650;28;20104;-87
2021/05/18 15:24:58;;;;;;;2.85;2.45;;;;;;;22.87;43.04;99461.97;5032769;28;20057;-84
2021/05/18 15:27:26;;;;;;;2.22;2.03;;;;;;;22.73;45.22;99458.19;5032625;28;20485;-87
2021/05/18 15:29:56;;;;;;;3.65;2.95;;;;;;;22.82;44.99;99456.31;5016256;28;20049;-87
2021/05/18 15:32:23;;;;;;;2.78;2.47;;;;;;;23.08;45.56;99457.00;5032779;28;20053;-88
2021/05/18 15:34:50;;;;;;;2.55;2.35;;;;;;;23.31;44.80;99448.97;5032193;28;20076;-87
2021/05/18 15:37:34;;;;;;;3.78;2.92;;;;;;;23.50;44.53;99454.91;5032866;28;20140;-84
2021/05/18 15:40:03;;;;;;;2.45;2.25;;;;;;;23.81;45.61;99448.63;5032326;28;20099;-83
2021/05/18 15:42:30;;;;;;;2.55;2.35;;;;;;;24.12;45.25;99454.91;5032600;28;20060;-84
2021/05/18 15:44:58;;;;;;;2.50;2.30;;;;;;;24.47;44.73;99452.50;5032511;28;20069;-83
2021/05/18 15:47:25;;;;;;;2.30;2.10;;;;;;;24.78;43.90;99453.31;5031946;28;20053;-83
2021/05/18 15:49:52;;;;;;;2.95;2.35;;;;;;;24.98;43.20;99454.38;5032230;28;20095;-84
2021/05/18 15:52:20;;;;;;;2.85;2.65;;;;;;;25.00;41.32;99450.69;5032306;28;20057;-83
2021/05/18 15:54:47;;;;;;;2.58;2.28;;;;;;;24.83;40.92;99457.09;5031970;28;20050;-84
2021/05/18 15:57:14;;;;;;;2.15;1.95;;;;;;;24.54;40.55;99453.44;5032098;28;20132;-83
2021/05/18 15:59:42;;;;;;;2.40;2.08;;;;;;;24.22;41.83;99452.75;5032029;28;20060;-84
2021/05/18 16:02:09;;;;;;;2.67;2.35;;;;;;;23.90;41.43;99447.53;5032296;28;20058;-84
2021/05/18 16:04:36;;;;;;;2.45;1.77;;;;;;;23.60;41.70;99443.91;5032425;28;20140;-83
2021/05/18 16:07:07;;;;;;;4.38;2.35;;;;;;;23.28;41.23;99449.31;5032505;28;20521;-83
2021/05/18 16:09:34;;;;;;;2.38;2.17;;;;;;;22.92;41.87;99445.38;5033738;28;20076;-84
2021/05/18 16:12:01;;;;;;;2.65;2.40;;;;;;;22.57;41.61;99453.72;5032293;28;20073;-83
2021/05/18 16:14:27;;;;;;;2.05;1.85;;;;;;;22.21;42.54;99454.97;5032004;28;20050;-87
2021/05/18 16:16:56;;;;;;;4.40;2.00;;;;;;;21.86;42.48;99463.25;5032027;28;20058;-87
2021/05/18 16:19:36;;;;;;;2.33;1.88;;;;;;;21.44;43.84;99458.84;5033079;28;20508;-87
2021/05/18 16:22:03;;;;;;;2.47;2.20;;;;;;;21.22;43.96;99455.81;5032887;28;20140;-87
2021/05/18 16:24:33;;;;;;;3.25;2.53;;;;;;;20.95;44.03;99455.09;5036236;28;20387;-87
2021/05/18 16:27:00;;;;;;;3.38;2.90;;;;;;;20.69;44.46;99458.66;5036276;28;20076;-87
2021/05/18 16:29:30;;;;;;;3.42;2.78;;;;;;;20.47;44.63;99462.72;5035675;28;20153;-87
2021/05/18 16:31:57;;;;;;;3.22;2.92;;;;;;;20.28;45.93;99454.78;5035927;28;20057;-87
2021/05/18 16:34:27;;;;;;;3.88;2.50;;;;;;;20.15;45.95;99460.53;5035434;28;20053;-87
2021/05/18 16:36:55;;;;;;;3.25;2.95;;;;;;;20.04;45.80;99468.84;5035561;28;20473;-83
2021/05/18 16:39:23;;;;;;;5.10;2.95;;;;;;;19.97;45.94;99462.41;5035776;28;20056;-83
2021/05/18 16:41:54;;;;;;;3.40;2.78;;;;;;;19.89;46.02;99477.38;5035765;28;20478;-83
2021/05/18 16:44:22;;;;;;;2.75;2.55;;;;;;;19.82;45.98;99471.00;5035913;28;20053;-83
2021/05/18 16:46:52;;;;;;;3.53;2.53;;;;;;;19.74;45.80;99484.28;5035378;28;20059;-86
2021/05/18 16:49:21;;;;;;;2.88;2.63;;;;;;;19.64;45.82;99487.03;5036838;28;20477;-83
2021/05/18 16:51:48;;;;;;;2.95;2.58;;;;;;;19.54;45.71;99484.41;5035286;28;20138;-82
2021/05/18 16:54:17;;;;;;;3.22;2.70;;;;;;;19.39;45.94;99479.63;5034976;28;20053;-87
2021/05/18 16:56:55;;;;;;;4.05;3.03;;;;;;;19.23;46.06;99487.47;5035437;28;20057;-83
2021/05/18 16:59:22;;;;;;;4.65;2.97;;;;;;;19.11;46.60;99498.34;5035134;28;20081;-83